Albany, New Hampshire
Current Conditions -  °F | °C
As of 12:54 AM on Sunday 23 Nov 2014 (Local Time) from KIZG Reporting Station
Overcast Overcast  
Wind Chill: 37°   Ceiling: 3900
Heat Index: 42°   Visibility: 10mi
Dew Point: 28°   Wind: 8mph
Humidity: 58%   Direction: 210°SSW
Pressure: 29.93"   Gusts: NA
Location:  43.9735°N, 71.2576°W
Report Text: KIZG 230554Z AUTO 21007KT 10SM OVC039 06/M02 A2993 RMK AO2 SLP139 T00561022 10056 20017 50001
Loading
Personal Weather Stations






























Interactive Weather Map New forecast layout! Learn more

10-Day Weather Forecast

Advertisements
Track Severe Weather on mobile